This is the latest recevied weather packets stored in our database for station/object K5MGY. If no packets are shown the sender has not sent any weather packets the latest 10 day(s).
| Time | Temp. | Humidity | Pressure | Rain* | Wind** | Luminosity | Snow |
|---|---|---|---|---|---|---|---|
| 1777491551 | 17.22° C | 90% | 1038.9 hPa | 0 mm | - | 301 W/m² | - |
| 1777491249 | 17.22° C | 90% | 1039.1 hPa | 0 mm | - | 185 W/m² | - |
| 1777490945 | 17.22° C | 91% | 1038.9 hPa | 0 mm | - | 125 W/m² | - |
| 1777490640 | 17.22° C | 92% | 1038.8 hPa | 0 mm | - | 448 W/m² | - |
| 1777490336 | 17.22° C | 94% | 1038.8 hPa | 0 mm | - | 422 W/m² | - |
| 1777490035 | 16.67° C | 94% | 1038.6 hPa | 1.78 mm | - | 657 W/m² | - |
| 1777489732 | 15.56° C | 93% | 1038 hPa | 19.81 mm | - | 627 W/m² | - |
| 1777489429 | 15° C | 91% | 1038 hPa | 24.64 mm | - | 112 W/m² | - |
| 1777489126 | 15° C | 90% | 1039.8 hPa | 7.87 mm | - | 40 W/m² | - |
| 1777488823 | 15° C | 91% | 1040.8 hPa | 0 mm | - | 4 W/m² | - |
| 1777488520 | 15° C | 91% | 1039 hPa | 0 mm | - | 19 W/m² | - |
| 1777488218 | 15° C | 90% | 1039 hPa | 0 mm | - | 21 W/m² | - |
| 1777487916 | 15° C | 90% | 1039.3 hPa | 0 mm | - | 18 W/m² | - |
| 1777487613 | 15.56° C | 90% | 1039.2 hPa | 0 mm | - | 17 W/m² | - |
| 1777487310 | 15.56° C | 89% | 1039.1 hPa | 0 mm | - | 32 W/m² | - |
| 1777487008 | 15.56° C | 88% | 1038.9 hPa | 1.27 mm | - | 18 W/m² | - |
| 1777486704 | 15.56° C | 86% | 1038.7 hPa | 1.27 mm | - | 56 W/m² | - |
| 1777486402 | 15.56° C | 85% | 1039.4 hPa | 0 mm | - | 22 W/m² | - |
| 1777486099 | 16.11° C | 83% | 1039.3 hPa | 0 mm | - | 25 W/m² | - |
| 1777485795 | 16.11° C | 81% | 1039.5 hPa | 0 mm | - | 33 W/m² | - |
| 1777485491 | 16.67° C | 79% | 1039.8 hPa | 0 mm | - | 25 W/m² | - |
| 1777485187 | 16.67° C | 78% | 1039.9 hPa | 0 mm | - | 21 W/m² | - |
| 1777484883 | 16.67° C | 78% | 1039.8 hPa | 0 mm | - | 25 W/m² | - |
| 1777484581 | 16.67° C | 77% | 1039.9 hPa | 0 mm | - | 41 W/m² | - |
| 1777484277 | 16.67° C | 77% | 1040.2 hPa | 0 mm | - | 33 W/m² | - |
* Rain latest hour (hover to see other rain measurements)
** Current wind speed in m/s (hover to see current wind gust speed)